Terminal Aerodrome Forecast
Issued by NWS North Platte, NE

Home | Current Version | Previous Version | Text Only | Print | Product List | Glossary On
Versions: 1 2 3 4 5 6 7 8 9 10 11 12 13
000
FTUS43 KLBF 300520
TAFVTN
TAF
KVTN 300520Z 3006/3106 VRB03KT P6SM SCT100 BKN250
     FM301800 12006KT P6SM SCT100 SCT250
     FM310300 17006KT P6SM SCT090=

USA.gov is the U.S. government's official web portal to all federal, state and local government web resources and services.